Dobrodošli na spletni strani vremenske postaje Senovo. Vse informacije so informativnega značaja, saj vremenska postaja ni del državne mreže meteoroloških postaj. AKTUALNIH OBVESTIL NI.


Posebna pozornost v zvezi z vremenskimi dogajanji ni potrebna.    Posebna pozornost v zvezi z vremenskimi dogajanji ni potrebna.

Pogled proti Armezu več informacij Pogled proti Armezu


Bohor več informacij Bohor


Radar strel več informacij blitzortung!


Radar padavin več informacij rain snow radar


Obiščite še:

Template documentation
and downloads

And another site



Weather Underground, zgodovina - Tekstovno

Dnevni povzetek za Februar 16, 2017 Enote:  Angleško    Metrično   Obe
« Predhodni Dan
Naslednji Dan »
Dnevni Tedenski Mesečni Letni Po meri
  Višja: Nižja: Povprečje:
Temperatura: TemperatureC °F -5.3 °F 0.9 °F
Točka rosišča: DewpointC °F -7.1 °F -3.9 °F
Vlažnost: Humidity % 43 % 72 %
Hitrost vetra: WindSpeedKMH mph 0.0 mph 0.9 mph
Sunki vetra: WindSpeedGustKMH mph - -
Veter:- - South
Zračni tlak: PressurehPa in 1027.0 in -
Padavine: 0.3 in    
Historical Graphs
 
 
Tabelarni podarki za Februar 16, 2017
Čas Temperatura Točka rosišča Zračni tlak Veter Hitrost vetra Sunki vetra Vlažnost Intenziteta padavin (urna)
TemperatureC °F DewpointC °F PressurehPa in Calm     Humidity % HourlyPrecipMM in
00:03 -3.3 °F -6.3 °F 1034.1 in Calm     80 % 0.0 in
00:08 -3.3 °F -6.1 °F 1035.1 in Calm     81 % 0.0 in
00:13 -3.4 °F -6.2 °F 1035.1 in Calm     81 % 0.0 in
00:18 -3.4 °F -6.2 °F 1035.1 in Calm     81 % 0.0 in
00:28 -3.5 °F -6.3 °F 1034.1 in Calm     81 % 0.0 in
00:34 -3.6 °F -6.2 °F 1034.1 in Calm     82 % 0.0 in
00:39 -3.6 °F -6.2 °F 1034.1 in Calm     82 % 0.0 in
00:44 -3.6 °F -6.2 °F 1034.1 in Calm     82 % 0.0 in
00:49 -3.7 °F -6.3 °F 1034.1 in Calm     82 % 0.0 in
00:54 -3.7 °F -6.3 °F 1033.1 in Calm     82 % 0.0 in
00:59 -3.7 °F -6.3 °F 1033.1 in Calm     82 % 0.0 in
01:04 -3.7 °F -6.3 °F 1033.1 in Calm     82 % 0.0 in
01:09 -3.8 °F -6.4 °F 1034.1 in Calm     82 % 0.0 in
01:14 -3.8 °F -6.3 °F 1034.1 in Calm     83 % 0.0 in
01:19 -3.9 °F -6.4 °F 1034.1 in Calm     83 % 0.0 in
01:24 -3.9 °F -6.4 °F 1034.1 in Calm     83 % 0.0 in
01:29 -4.0 °F -6.4 °F 1034.1 in Calm     83 % 0.0 in
01:34 -4.0 °F -6.4 °F 1034.1 in Calm     83 % 0.0 in
01:39 -4.0 °F -6.4 °F 1034.1 in Calm     83 % 0.0 in
01:44 -4.1 °F -6.4 °F 1034.1 in Calm     84 % 0.0 in
01:49 -4.1 °F -6.4 °F 1034.1 in Calm     84 % 0.0 in
01:54 -4.1 °F -6.4 °F 1033.1 in Calm     84 % 0.0 in
01:59 -4.1 °F -6.4 °F 1033.1 in Calm     84 % 0.0 in
02:05 -4.2 °F -6.5 °F 1033.1 in Calm     84 % 0.0 in
02:10 -4.2 °F -6.5 °F 1033.1 in Calm     84 % 0.0 in
02:15 -4.2 °F -6.5 °F 1033.1 in Calm     84 % 0.0 in
02:20 -4.2 °F -6.5 °F 1033.1 in Calm     84 % 0.0 in
02:25 -4.2 °F -6.5 °F 1034.1 in Calm     84 % 0.0 in
02:30 -4.2 °F -6.5 °F 1034.1 in Calm     84 % 0.0 in
02:35 -4.2 °F -6.5 °F 1034.1 in Calm     84 % 0.0 in
02:40 -4.3 °F -6.6 °F 1035.1 in Calm     84 % 0.0 in
02:45 -4.3 °F -6.6 °F 1035.1 in Calm     84 % 0.0 in
02:50 -4.3 °F -6.6 °F 1035.1 in Calm     84 % 0.0 in
02:55 -4.3 °F -6.4 °F 1034.1 in NNW 0.2 mph 3.2 mph 85 % 0.0 in
03:00 -4.4 °F -6.6 °F 1034.1 in NNW 0.3 mph 3.2 mph 85 % 0.0 in
03:05 -4.4 °F -6.6 °F 1034.1 in NNW 0.3 mph 2.1 mph 85 % 0.0 in
03:10 -4.4 °F -6.6 °F 1034.1 in Calm     85 % 0.0 in
03:15 -4.4 °F -6.6 °F 1034.1 in Calm     85 % 0.0 in
03:20 -4.4 °F -6.6 °F 1034.1 in Calm     85 % 0.0 in
03:25 -4.5 °F -6.7 °F 1034.1 in Calm     85 % 0.0 in
03:30 -4.5 °F -6.7 °F 1034.1 in Calm     85 % 0.0 in
03:35 -4.5 °F -6.7 °F 1034.1 in Calm     85 % 0.0 in
03:40 -4.6 °F -6.7 °F 1034.1 in Calm     85 % 0.0 in
03:45 -4.6 °F -6.7 °F 1034.1 in Calm     85 % 0.0 in
03:50 -4.7 °F -6.8 °F 1034.1 in Calm     85 % 0.0 in
03:55 -4.7 °F -6.8 °F 1034.1 in Calm     85 % 0.0 in
04:00 -4.7 °F -6.7 °F 1034.1 in Calm     86 % 0.0 in
04:05 -4.7 °F -6.7 °F 1034.1 in Calm     86 % 0.0 in
04:11 -4.7 °F -6.8 °F 1034.1 in Calm     85 % 0.0 in
04:16 -4.7 °F -6.8 °F 1034.1 in Calm     85 % 0.0 in
04:21 -4.8 °F -6.9 °F 1034.1 in Calm     85 % 0.0 in
04:26 -4.8 °F -6.8 °F 1033.1 in Calm     86 % 0.0 in
04:31 -4.8 °F -6.8 °F 1033.1 in Calm     86 % 0.0 in
04:36 -4.9 °F -6.9 °F 1033.1 in Calm     86 % 0.0 in
04:41 -4.8 °F -6.8 °F 1033.1 in Calm     86 % 0.0 in
04:46 -4.9 °F -6.9 °F 1033.1 in Calm     86 % 0.0 in
04:51 -4.9 °F -6.9 °F 1033.1 in Calm     86 % 0.0 in
04:56 -4.9 °F -6.9 °F 1034.1 in Calm     86 % 0.0 in
05:01 -4.9 °F -6.9 °F 1034.1 in Calm     86 % 0.0 in
05:06 -4.9 °F -6.9 °F 1034.1 in Calm     86 % 0.0 in
05:11 -4.9 °F -6.9 °F 1034.1 in Calm     86 % 0.0 in
05:16 -4.9 °F -6.9 °F 1034.1 in Calm     86 % 0.0 in
05:21 -5.0 °F -6.8 °F 1034.1 in Calm     87 % 0.0 in
05:26 -5.0 °F -6.8 °F 1034.1 in Calm     87 % 0.0 in
05:31 -5.0 °F -6.8 °F 1034.1 in Calm     87 % 0.0 in
05:36 -5.0 °F -6.8 °F 1034.1 in Calm     87 % 0.0 in
05:41 -5.1 °F -6.9 °F 1034.1 in Calm     87 % 0.0 in
05:46 -5.1 °F -6.9 °F 1034.1 in Calm     87 % 0.0 in
05:51 -5.0 °F -6.8 °F 1034.1 in Calm     87 % 0.0 in
05:56 -5.0 °F -6.8 °F 1034.1 in Calm     87 % 0.0 in
06:01 -5.1 °F -6.9 °F 1034.1 in Calm     87 % 0.0 in
06:06 -5.1 °F -6.9 °F 1034.1 in Calm     87 % 0.0 in
06:11 -5.1 °F -6.9 °F 1034.1 in Calm     87 % 0.0 in
06:16 -5.1 °F -6.9 °F 1034.1 in Calm     87 % 0.0 in
06:21 -5.1 °F -6.9 °F 1034.1 in Calm     87 % 0.0 in
06:26 -5.1 °F -6.9 °F 1034.1 in Calm     87 % 0.0 in
06:31 -5.2 °F -7.0 °F 1034.1 in Calm     87 % 0.0 in
06:36 -5.2 °F -7.0 °F 1034.1 in Calm     87 % 0.0 in
06:41 -5.2 °F -7.0 °F 1034.1 in Calm     87 % 0.0 in
06:46 -5.2 °F -7.0 °F 1034.1 in Calm     87 % 0.0 in
06:52 -5.3 °F -7.1 °F 1034.1 in Calm     87 % 0.0 in
06:57 -5.3 °F -7.1 °F 1034.1 in Calm     87 % 0.0 in
07:02 -5.3 °F -7.1 °F 1034.1 in Calm     87 % 0.0 in
07:07 -5.3 °F -7.1 °F 1034.1 in Calm     87 % 0.0 in
07:12 -5.3 °F -7.1 °F 1034.1 in Calm     87 % 0.0 in
07:17 -5.2 °F -7.0 °F 1034.1 in Calm     87 % 0.0 in
07:22 -5.2 °F -7.0 °F 1034.1 in Calm     87 % 0.0 in
07:27 -5.3 °F -7.1 °F 1034.1 in Calm     87 % 0.0 in
07:32 -5.3 °F -7.0 °F 1034.1 in Calm     88 % 0.0 in
07:37 -5.2 °F -6.9 °F 1034.1 in Calm     88 % 0.0 in
07:42 -5.2 °F -6.9 °F 1034.1 in Calm     88 % 0.0 in
07:47 -5.1 °F -6.8 °F 1034.1 in Calm     88 % 0.0 in
07:52 -5.1 °F -6.8 °F 1034.1 in Calm     88 % 0.0 in
07:57 -5.1 °F -6.8 °F 1034.1 in Calm     88 % 0.0 in
08:02 -5.0 °F -6.7 °F 1034.1 in Calm     88 % 0.0 in
08:07 -4.9 °F -6.6 °F 1034.1 in Calm     88 % 0.0 in
08:12 -4.8 °F -6.5 °F 1034.1 in Calm     88 % 0.0 in
08:17 -4.7 °F -6.4 °F 1034.1 in Calm     88 % 0.0 in
08:22 -4.7 °F -6.4 °F 1034.1 in Calm     88 % 0.0 in
08:27 -4.5 °F -6.1 °F 1034.1 in Calm     89 % 0.0 in
08:37 -4.1 °F -5.7 °F 1034.1 in Calm     89 % 0.0 in
08:42 -3.8 °F -5.3 °F 1034.1 in Calm     89 % 0.0 in
08:47 -3.6 °F -5.2 °F 1034.1 in Calm     89 % 0.0 in
08:52 -3.4 °F -4.9 °F 1034.1 in Calm     89 % 0.0 in
08:57 -3.2 °F -4.6 °F 1034.1 in Calm     90 % 0.0 in
09:02 -2.8 °F -4.2 °F 1034.1 in Calm     90 % 0.0 in
09:07 -2.5 °F -3.9 °F 1034.1 in Calm     90 % 0.0 in
09:12 -2.3 °F -3.7 °F 1034.1 in Calm   2.1 mph 90 % 0.0 in
09:17 -1.9 °F -3.3 °F 1034.1 in Calm   2.1 mph 90 % 0.0 in
09:22 -1.6 °F -3.0 °F 1033.1 in SE 1.0 mph 4.0 mph 90 % 0.0 in
09:27 -1.2 °F -2.6 °F 1033.1 in ESE 1.6 mph 4.0 mph 90 % 0.0 in
09:32 -0.8 °F -2.2 °F 1033.1 in ESE 1.0 mph 4.0 mph 90 % 0.0 in
09:37 -0.5 °F -1.9 °F 1033.1 in ESE 0.5 mph 4.0 mph 90 % 0.0 in
09:42 -0.1 °F -1.6 °F 1033.1 in ESE 1.4 mph 4.3 mph 90 % 0.0 in
09:47 0.3 °F -1.2 °F 1033.1 in ESE 2.3 mph 4.3 mph 90 % 0.0 in
09:52 0.6 °F -0.8 °F 1033.1 in East 1.6 mph 4.3 mph 90 % 0.0 in
09:57 0.8 °F -0.7 °F 1033.1 in ESE 1.6 mph 4.7 mph 90 % 0.0 in
10:02 1.1 °F -0.5 °F 1033.1 in ESE 2.7 mph 5.8 mph 89 % 0.0 in
10:07 1.5 °F -0.1 °F 1033.1 in East 3.2 mph 5.8 mph 89 % 0.0 in
10:12 1.7 °F -0.1 °F 1033.1 in ESE 1.6 mph 4.7 mph 88 % 0.0 in
10:17 2.0 °F 0.1 °F 1033.1 in SE 0.8 mph 5.8 mph 87 % 0.3 in
10:22 2.4 °F 0.4 °F 1033.1 in ESE 1.9 mph 5.8 mph 87 % 0.3 in
10:27 2.6 °F 0.5 °F 1033.1 in ESE 2.7 mph 4.7 mph 86 % 0.3 in
10:32 2.9 °F 0.8 °F 1033.1 in ESE 2.7 mph 4.7 mph 86 % 0.3 in
10:37 3.2 °F 0.8 °F 1033.1 in ESE 2.1 mph 4.7 mph 84 % 0.3 in
10:42 3.4 °F 0.8 °F 1033.1 in East 1.6 mph 3.5 mph 83 % 0.3 in
10:47 3.7 °F 0.9 °F 1033.1 in East 1.3 mph 4.0 mph 82 % 0.3 in
10:52 3.9 °F 0.9 °F 1033.1 in ESE 0.8 mph 4.0 mph 81 % 0.3 in
10:57 4.2 °F 1.1 °F 1033.1 in ESE 0.3 mph 4.0 mph 80 % 0.3 in
11:02 4.6 °F 1.3 °F 1033.1 in Calm   2.1 mph 79 % 0.3 in
11:07 5.2 °F 1.7 °F 1033.1 in SSE 0.3 mph 2.6 mph 78 % 0.3 in
11:12 5.9 °F 2.0 °F 1033.1 in South 0.3 mph 2.6 mph 76 % 0.3 in
11:23 6.8 °F 2.3 °F 1033.1 in South 0.2 mph 2.1 mph 73 % 0.0 in
11:28 7.2 °F 2.5 °F 1033.1 in East 0.6 mph 3.5 mph 72 % 0.0 in
11:33 7.7 °F 2.8 °F 1033.1 in ESE 1.0 mph 4.3 mph 71 % 0.0 in
11:38 8.1 °F 2.6 °F 1032.1 in SSW 0.8 mph 4.3 mph 68 % 0.0 in
11:43 8.3 °F 2.5 °F 1032.1 in SW 0.6 mph 3.5 mph 67 % 0.0 in
11:48 8.6 °F 2.6 °F 1032.1 in ESE 0.3 mph 4.3 mph 66 % 0.0 in
11:53 8.8 °F 1.9 °F 1032.1 in East 1.1 mph 4.3 mph 62 % 0.0 in
11:58 9.0 °F 1.7 °F 1032.1 in ESE 2.3 mph 4.7 mph 60 % 0.0 in
12:03 9.2 °F 1.8 °F 1032.1 in ESE 1.9 mph 4.7 mph 60 % 0.0 in
12:08 9.4 °F 2.0 °F 1032.1 in East 1.1 mph 4.3 mph 60 % 0.0 in
12:13 9.6 °F 1.9 °F 1032.1 in SE 1.4 mph 4.7 mph 59 % 0.0 in
12:18 9.9 °F 1.8 °F 1032.1 in SSE 2.1 mph 6.4 mph 57 % 0.0 in
12:23 10.1 °F 1.9 °F 1032.1 in SE 2.7 mph 6.4 mph 57 % 0.0 in
12:28 10.2 °F 1.8 °F 1032.1 in SE 1.9 mph 5.5 mph 56 % 0.0 in
12:33 10.5 °F 1.8 °F 1032.1 in South 2.1 mph 6.9 mph 55 % 0.0 in
12:38 10.7 °F 2.0 °F 1032.1 in South 3.4 mph 6.9 mph 55 % 0.0 in
12:43 10.9 °F 1.9 °F 1032.1 in SSE 2.7 mph 6.4 mph 54 % 0.0 in
12:48 10.9 °F 1.7 °F 1032.1 in WNW 2.6 mph 6.1 mph 53 % 0.0 in
12:53 11.2 °F 1.9 °F 1032.1 in SSW 2.6 mph 6.9 mph 53 % 0.0 in
12:58 11.4 °F 2.2 °F 1032.1 in SSE 3.4 mph 9.3 mph 53 % 0.0 in
13:03 11.6 °F 1.8 °F 1032.1 in South 4.8 mph 9.3 mph 51 % 0.0 in
13:08 11.6 °F 1.8 °F 1031.0 in SSE 4.3 mph 7.2 mph 51 % 0.0 in
13:13 11.7 °F 1.9 °F 1031.0 in South 4.8 mph 9.3 mph 51 % 0.0 in
13:18 11.8 °F 1.7 °F 1031.0 in SSE 4.3 mph 9.3 mph 50 % 0.0 in
13:23 11.7 °F 1.6 °F 1030.0 in SSE 4.2 mph 7.9 mph 50 % 0.0 in
13:28 11.7 °F 1.3 °F 1030.0 in SSE 4.7 mph 8.7 mph 49 % 0.0 in
13:33 11.7 °F 1.1 °F 1030.0 in South 5.3 mph 8.7 mph 48 % 0.0 in
13:38 11.7 °F 1.1 °F 1030.0 in SSE 5.1 mph 8.7 mph 48 % 0.0 in
13:43 11.7 °F 0.7 °F 1030.0 in SSE 5.0 mph 8.7 mph 47 % 0.0 in
13:48 11.6 °F 0.7 °F 1030.0 in South 3.5 mph 8.7 mph 47 % 0.0 in
13:53 11.6 °F 0.7 °F 1030.0 in South 2.6 mph 7.2 mph 47 % 0.0 in
13:58 11.5 °F 0.6 °F 1030.0 in South 3.9 mph 10.5 mph 47 % 0.0 in
14:03 11.6 °F 0.7 °F 1030.0 in South 4.7 mph 10.5 mph 47 % 0.0 in
14:13 11.7 °F 0.4 °F 1029.0 in SSW 3.4 mph 6.1 mph 46 % 0.0 in
14:18 11.8 °F 0.6 °F 1029.0 in SSW 4.2 mph 7.6 mph 46 % 0.0 in
14:23 11.9 °F 0.6 °F 1030.0 in South 4.3 mph 7.6 mph 46 % 0.0 in
14:28 11.9 °F 0.6 °F 1030.0 in South 4.2 mph 9.3 mph 46 % 0.0 in
14:33 11.9 °F 0.6 °F 1030.0 in SSE 4.2 mph 9.3 mph 46 % 0.0 in
14:38 11.9 °F 0.6 °F 1030.0 in SSE 4.3 mph 6.9 mph 46 % 0.0 in
14:43 11.9 °F 0.6 °F 1030.0 in SSE 3.9 mph 6.9 mph 46 % 0.0 in
14:48 11.9 °F 0.3 °F 1030.0 in SSE 3.9 mph 7.6 mph 45 % 0.0 in
14:54 11.9 °F 0.3 °F 1030.0 in SSE 4.0 mph 7.6 mph 45 % 0.0 in
14:58 11.9 °F 0.3 °F 1030.0 in SSE 3.9 mph 7.6 mph 45 % 0.0 in
15:03 12.0 °F 0.4 °F 1030.0 in SSE 4.5 mph 7.6 mph 45 % 0.0 in
15:09 12.0 °F 0.4 °F 1030.0 in South 4.8 mph 6.9 mph 45 % 0.0 in
15:14 12.0 °F 0.4 °F 1030.0 in South 4.5 mph 7.6 mph 45 % 0.0 in
15:19 11.9 °F 0.3 °F 1030.0 in SSE 3.9 mph 7.6 mph 45 % 0.0 in
15:24 12.0 °F 0.1 °F 1030.0 in SSE 3.4 mph 5.8 mph 44 % 0.0 in
15:29 12.1 °F 0.2 °F 1030.0 in South 3.2 mph 6.1 mph 44 % 0.0 in
15:34 12.2 °F 0.0 °F 1030.0 in South 3.7 mph 6.4 mph 43 % 0.0 in
15:39 12.2 °F 0.0 °F 1029.0 in SSE 4.2 mph 6.4 mph 43 % 0.0 in
15:44 12.0 °F -0.2 °F 1029.0 in SSE 3.9 mph 6.9 mph 43 % 0.0 in
15:49 11.7 °F -0.2 °F 1029.0 in SSE 3.9 mph 6.9 mph 44 % 0.0 in
15:54 11.3 °F -0.8 °F 1029.0 in South 2.9 mph 5.5 mph 43 % 0.0 in
15:59 10.9 °F -0.9 °F 1029.0 in SSW 2.1 mph 5.5 mph 44 % 0.0 in
16:09 10.2 °F -1.6 °F 1029.0 in South 1.9 mph 4.0 mph 44 % 0.0 in
16:14 9.9 °F -1.5 °F 1029.0 in South 1.4 mph 4.0 mph 45 % 0.0 in
16:19 9.3 °F -2.1 °F 1029.0 in SW 1.8 mph 4.7 mph 45 % 0.0 in
16:24 8.9 °F -2.4 °F 1029.0 in SW 1.4 mph 4.7 mph 45 % 0.0 in
16:34 7.9 °F -2.7 °F 1029.0 in WNW 0.8 mph 4.3 mph 47 % 0.0 in
16:39 7.4 °F -3.2 °F 1029.0 in WNW 1.9 mph 5.0 mph 47 % 0.0 in
16:44 6.9 °F -3.4 °F 1029.0 in WNW 1.9 mph 5.0 mph 48 % 0.0 in
16:49 6.6 °F -3.7 °F 1029.0 in WNW 2.4 mph 7.2 mph 48 % 0.0 in
16:54 6.2 °F -4.0 °F 1029.0 in WNW 2.6 mph 7.2 mph 48 % 0.0 in
16:59 5.9 °F -4.0 °F 1029.0 in WNW 1.9 mph 6.1 mph 49 % 0.0 in
17:04 5.6 °F -4.0 °F 1029.0 in NW 1.6 mph 6.1 mph 50 % 0.0 in
17:09 5.4 °F -4.2 °F 1029.0 in NW 0.6 mph 4.3 mph 50 % 0.0 in
17:15 5.0 °F -4.3 °F 1029.0 in Calm     51 % 0.0 in
17:20 4.7 °F -4.6 °F 1029.0 in Calm     51 % 0.0 in
17:25 4.4 °F -4.6 °F 1029.0 in West 0.2 mph 3.2 mph 52 % 0.0 in
17:30 4.1 °F -4.6 °F 1029.0 in West 0.2 mph 3.2 mph 53 % 0.0 in
17:35 3.8 °F -4.7 °F 1029.0 in Calm     54 % 0.0 in
17:40 3.6 °F -4.8 °F 1029.0 in Calm     54 % 0.0 in
17:45 3.5 °F -4.9 °F 1029.0 in Calm     54 % 0.0 in
17:50 3.3 °F -4.9 °F 1029.0 in Calm   4.3 mph 55 % 0.0 in
17:55 3.1 °F -5.1 °F 1029.0 in WNW 1.1 mph 5.0 mph 55 % 0.0 in
18:00 2.9 °F -5.1 °F 1029.0 in West 1.6 mph 5.0 mph 56 % 0.0 in
18:05 2.7 °F -5.0 °F 1029.0 in West 0.3 mph 3.5 mph 57 % 0.0 in
18:10 2.5 °F -4.9 °F 1029.0 in NW 0.8 mph 4.7 mph 58 % 0.0 in
18:15 2.3 °F -4.9 °F 1029.0 in NW 0.8 mph 4.7 mph 59 % 0.0 in
18:20 2.1 °F -5.1 °F 1029.0 in Calm     59 % 0.0 in
18:25 2.0 °F -4.9 °F 1029.0 in Calm     60 % 0.0 in
18:30 1.9 °F -4.8 °F 1029.0 in Calm   3.5 mph 61 % 0.0 in
18:35 1.8 °F -4.7 °F 1029.0 in NW 0.3 mph 3.5 mph 62 % 0.0 in
18:40 1.7 °F -4.6 °F 1029.0 in NW 0.3 mph 3.2 mph 63 % 0.0 in
18:45 1.6 °F -4.7 °F 1029.0 in Calm     63 % 0.0 in
18:50 1.5 °F -4.6 °F 1029.0 in Calm     64 % 0.0 in
18:55 1.4 °F -4.7 °F 1029.0 in Calm     64 % 0.0 in
19:00 1.3 °F -4.8 °F 1029.0 in Calm     64 % 0.0 in
19:05 1.1 °F -4.9 °F 1029.0 in Calm     64 % 0.0 in
19:10 1.0 °F -4.8 °F 1029.0 in Calm     65 % 0.0 in
19:15 0.9 °F -4.9 °F 1029.0 in Calm     65 % 0.0 in
19:25 0.7 °F -4.7 °F 1029.0 in Calm     67 % 0.0 in
19:30 0.6 °F -4.8 °F 1029.0 in Calm     67 % 0.0 in
19:35 0.5 °F -4.7 °F 1029.0 in Calm     68 % 0.0 in
19:41 0.4 °F -4.8 °F 1029.0 in Calm     68 % 0.0 in
19:46 0.4 °F -4.8 °F 1029.0 in Calm     68 % 0.0 in
19:51 0.2 °F -5.0 °F 1029.0 in Calm     68 % 0.0 in
19:56 0.1 °F -4.9 °F 1029.0 in Calm     69 % 0.0 in
20:01 0.0 °F -5.0 °F 1029.0 in Calm     69 % 0.0 in
20:06 -0.1 °F -4.9 °F 1029.0 in Calm     70 % 0.0 in
20:11 -0.2 °F -5.0 °F 1029.0 in Calm     70 % 0.0 in
20:16 -0.3 °F -5.1 °F 1029.0 in Calm     70 % 0.0 in
20:21 -0.4 °F -5.0 °F 1029.0 in SW 0.2 mph 3.5 mph 71 % 0.0 in
20:26 -0.4 °F -5.0 °F 1029.0 in SW 0.6 mph 3.5 mph 71 % 0.0 in
20:31 -0.4 °F -5.2 °F 1029.0 in SSW 0.5 mph 2.1 mph 70 % 0.0 in
20:36 -0.6 °F -5.0 °F 1029.0 in Calm     72 % 0.0 in
20:41 -0.6 °F -5.2 °F 1029.0 in Calm     71 % 0.0 in
20:46 -0.7 °F -5.1 °F 1029.0 in Calm     72 % 0.0 in
20:51 -0.8 °F -5.2 °F 1029.0 in Calm     72 % 0.0 in
20:56 -0.8 °F -5.2 °F 1029.0 in Calm     72 % 0.0 in
21:01 -0.9 °F -5.1 °F 1029.0 in Calm     73 % 0.0 in
21:06 -1.0 °F -5.2 °F 1029.0 in Calm     73 % 0.0 in
21:11 -1.0 °F -5.2 °F 1029.0 in Calm     73 % 0.0 in
21:16 -1.0 °F -5.2 °F 1029.0 in Calm     73 % 0.0 in
21:21 -1.0 °F -5.2 °F 1029.0 in Calm     73 % 0.0 in
21:26 -1.0 °F -5.2 °F 1029.0 in Calm     73 % 0.0 in
21:31 -1.0 °F -5.2 °F 1029.0 in Calm     73 % 0.0 in
21:36 -1.0 °F -5.2 °F 1029.0 in Calm     73 % 0.0 in
21:41 -1.0 °F -5.2 °F 1029.0 in Calm     73 % 0.0 in
21:46 -1.0 °F -5.2 °F 1029.0 in Calm     73 % 0.0 in
21:51 -1.0 °F -5.2 °F 1028.0 in Calm     73 % 0.0 in
21:56 -1.7 °F -5.7 °F 1028.0 in Calm     74 % 0.0 in
22:02 -1.7 °F -5.7 °F 1028.0 in Calm     74 % 0.0 in
22:07 -1.7 °F -5.7 °F 1028.0 in Calm     74 % 0.0 in
22:12 -1.7 °F -5.7 °F 1028.0 in Calm     74 % 0.0 in
22:17 -1.7 °F -5.7 °F 1028.0 in Calm     74 % 0.0 in
22:22 -1.7 °F -5.7 °F 1029.0 in Calm     74 % 0.0 in
22:27 -1.7 °F -5.7 °F 1029.0 in Calm     74 % 0.0 in
22:32 -1.7 °F -5.7 °F 1029.0 in Calm     74 % 0.0 in
22:37 -1.7 °F -5.7 °F 1028.0 in Calm     74 % 0.0 in
22:42 -1.7 °F -5.7 °F 1028.0 in Calm     74 % 0.0 in
22:47 -2.1 °F -5.8 °F 1028.0 in Calm     76 % 0.0 in
22:52 -2.2 °F -5.7 °F 1028.0 in Calm     77 % 0.0 in
22:57 -2.2 °F -5.7 °F 1028.0 in Calm     77 % 0.0 in
23:02 -2.3 °F -5.8 °F 1028.0 in Calm     77 % 0.0 in
23:07 -2.3 °F -5.8 °F 1028.0 in Calm     77 % 0.0 in
23:12 -2.4 °F -5.9 °F 1028.0 in Calm     77 % 0.0 in
23:17 -2.4 °F -5.9 °F 1028.0 in West 0.3 mph 3.5 mph 77 % 0.0 in
23:22 -2.5 °F -6.0 °F 1028.0 in West 0.6 mph 3.5 mph 77 % 0.0 in
23:27 -2.5 °F -6.0 °F 1028.0 in North 0.2 mph   77 % 0.0 in
23:33 -2.6 °F -6.1 °F 1028.0 in Calm     77 % 0.0 in
23:38 -2.6 °F -5.9 °F 1027.0 in Calm     78 % 0.0 in
23:43 -2.6 °F -5.9 °F 1027.0 in Calm     78 % 0.0 in
23:48 -2.7 °F -6.0 °F 1027.0 in Calm     78 % 0.0 in
23:53 -2.8 °F -6.1 °F 1028.0 in Calm     78 % 0.0 in
23:58 -2.8 °F -6.1 °F 1028.0 in Calm     78 % 0.0 in
Vremenska postaja Senovo
Podatki zbrani iz Weather Underground - 2.75 mb

Script developed by  Jim McMurry - jmcmurry@mwt.net Adapted for the template by  Wim van der Kuil - Leuven-Template.eu

Vremenski podatki so objavljeni na:

European Weather Network

WeatherCloud

Weather Underground

AWEKAS

HAMweather, WeatherForYou, PWS Weather

MapView

Geostik

Slovenia weather network

Oprema, ki se uporablja:

Vremenski program
Cumulus

Vremenski server
Asus

Cumulus

Asus